Terminal Aerodrome Forecast
Issued by NWS

Home | Current Version | Previous Version | Text Only | Print | Product List | Glossary On
Versions: 1 2 3 4 5 6 7 8 9 10 11 12 13 14 15 16 17 18 19 20 21 22 23 24
000
FTAK31 PAFA 011735
TAFAGA
TAF
PAGA 011735Z 0118/0218 24010KT P6SM VCSH SCT050 BKN070
      TEMPO 0119/0121 -SHRA SCT035 BKN050
     FM012100 24015KT P6SM -SHRA SCT025 BKN040=

USA.gov is the U.S. government's official web portal to all federal, state and local government web resources and services.